Time;durP1;ratioP1;P1;durP2;ratioP2;P2;SDS_P1;SDS_P2;PMS_P1;PMS_P2;Temp;Humidity;BMP_temperature;BMP_pressure;BME280_temperature;BME280_humidity;BME280_pressure;Samples;Min_cycle;Max_cycle;Signal;HPM_P1;HPM_P2
2021/10/04 00:01:44;;;;;;;5.18;1.90;;;16.20;92.10;;;;;;4191530;28;20147;-56
2021/10/04 00:04:07;;;;;;;2.50;1.77;;;16.20;92.10;;;;;;4190140;28;20060;-58
2021/10/04 00:06:29;;;;;;;1.95;1.85;;;16.20;92.10;;;;;;4188408;28;20045;-53
2021/10/04 00:08:51;;;;;;;2.35;1.60;;;16.20;92.10;;;;;;4174695;28;20057;-56
2021/10/04 00:11:14;;;;;;;1.70;1.58;;;16.20;92.10;;;;;;4174799;28;20127;-57
2021/10/04 00:13:37;;;;;;;2.42;2.22;;;16.20;92.10;;;;;;4174627;28;20053;-53
2021/10/04 00:15:59;;;;;;;2.63;1.92;;;16.20;92.10;;;;;;4179848;28;20055;-56
2021/10/04 00:18:22;;;;;;;2.78;2.22;;;16.20;92.10;;;;;;4158309;28;20049;-55
2021/10/04 00:20:44;;;;;;;1.95;1.50;;;16.20;92.10;;;;;;4158097;28;20049;-56
2021/10/04 00:23:07;;;;;;;2.50;1.75;;;16.20;92.10;;;;;;4158158;28;20049;-56
2021/10/04 00:25:29;;;;;;;2.35;2.13;;;16.20;91.90;;;;;;4158051;28;20559;-56
2021/10/04 00:27:52;;;;;;;2.38;1.95;;;16.20;92.10;;;;;;4190534;28;20052;-55
2021/10/04 00:30:14;;;;;;;1.55;1.48;;;16.20;92.00;;;;;;4191039;28;20584;-54
2021/10/04 00:32:39;;;;;;;1.70;1.60;;;16.20;91.90;;;;;;4190862;28;20059;-55
2021/10/04 00:35:02;;;;;;;3.72;2.00;;;16.20;92.10;;;;;;4185193;28;20045;-55
2021/10/04 00:37:25;;;;;;;1.98;1.77;;;16.20;92.20;;;;;;4185306;28;20118;-55
2021/10/04 00:39:47;;;;;;;3.33;2.00;;;16.20;92.00;;;;;;4190899;28;20058;-56
2021/10/04 00:42:09;;;;;;;1.92;1.50;;;16.20;92.20;;;;;;4190733;28;20102;-55
2021/10/04 00:44:31;;;;;;;2.00;1.70;;;16.20;92.10;;;;;;4190259;28;20048;-54
2021/10/04 00:46:53;;;;;;;2.63;1.52;;;16.20;92.20;;;;;;4183160;28;20053;-54
2021/10/04 00:49:15;;;;;;;1.70;1.60;;;16.20;92.10;;;;;;4174370;28;20037;-55
2021/10/04 00:51:38;;;;;;;1.70;1.60;;;16.20;92.00;;;;;;4174378;28;20057;-55
2021/10/04 00:54:00;;;;;;;2.22;2.00;;;16.20;92.10;;;;;;4174240;28;20049;-55
2021/10/04 00:56:24;;;;;;;1.52;1.42;;;16.20;92.10;;;;;;4162467;28;20051;-55
2021/10/04 00:58:46;;;;;;;2.70;1.70;;;16.20;91.90;;;;;;4190674;28;20091;-55
2021/10/04 01:01:08;;;;;;;1.65;1.55;;;16.10;92.10;;;;;;4190762;28;20049;-54
2021/10/04 01:03:30;;;;;;;1.75;1.60;;;16.10;92.10;;;;;;4190898;28;20040;-55
2021/10/04 01:05:52;;;;;;;3.03;2.00;;;16.20;92.00;;;;;;4190821;28;20482;-54
2021/10/04 01:08:15;;;;;;;1.67;1.58;;;16.20;92.00;;;;;;4163780;28;20144;-56
2021/10/04 01:10:37;;;;;;;2.90;1.70;;;16.10;92.10;;;;;;4174055;28;20487;-57
2021/10/04 01:12:59;;;;;;;1.67;1.55;;;16.20;92.10;;;;;;4174014;28;20708;-57
2021/10/04 01:15:22;;;;;;;1.95;1.67;;;16.10;92.10;;;;;;4188970;28;20055;-58
2021/10/04 01:17:45;;;;;;;2.00;1.60;;;16.20;92.10;;;;;;4180053;28;20060;-56
2021/10/04 01:20:12;;;;;;;3.22;1.60;;;16.10;92.00;;;;;;4177018;28;20052;-55
2021/10/04 01:22:34;;;;;;;2.47;1.45;;;16.10;92.00;;;;;;4176538;28;20053;-56
2021/10/04 01:24:56;;;;;;;3.08;1.65;;;16.10;92.10;;;;;;4177164;28;20522;-56
2021/10/04 01:27:18;;;;;;;1.60;1.50;;;16.10;92.00;;;;;;4187440;28;20102;-56
2021/10/04 01:29:43;;;;;;;2.03;1.67;;;16.10;92.30;;;;;;4193598;28;20106;-56
2021/10/04 01:32:07;;;;;;;3.05;1.38;;;16.10;91.90;;;;;;4192017;28;20457;-55
2021/10/04 01:34:29;;;;;;;2.88;1.52;;;16.10;92.00;;;;;;4185848;28;20052;-56
2021/10/04 01:36:53;;;;;;;2.40;1.52;;;16.10;92.10;;;;;;4183535;28;20056;-56
2021/10/04 01:39:15;;;;;;;1.50;1.40;;;16.10;91.90;;;;;;4193598;28;20064;-55
2021/10/04 01:41:37;;;;;;;1.60;1.50;;;16.10;92.20;;;;;;4193257;28;20079;-57
2021/10/04 01:43:59;;;;;;;2.15;1.30;;;16.10;92.10;;;;;;4193182;28;20049;-56
2021/10/04 01:46:22;;;;;;;3.42;1.83;;;16.10;92.50;;;;;;4176906;28;20484;-55
2021/10/04 01:48:44;;;;;;;2.50;1.42;;;16.10;92.10;;;;;;4176606;28;20059;-56
2021/10/04 01:51:06;;;;;;;1.98;1.40;;;16.10;92.00;;;;;;4176507;28;20045;-54
2021/10/04 01:53:30;;;;;;;1.42;1.27;;;16.10;92.00;;;;;;4177055;28;20188;-55
2021/10/04 01:55:52;;;;;;;3.85;1.90;;;16.10;92.40;;;;;;4189559;28;20055;-57
2021/10/04 01:58:13;;;;;;;2.05;1.45;;;16.10;92.00;;;;;;4192838;28;20048;-55
2021/10/04 02:00:37;;;;;;;1.35;1.25;;;16.10;92.00;;;;;;4192970;28;20143;-56
2021/10/04 02:02:59;;;;;;;4.97;1.90;;;16.10;92.10;;;;;;4193016;28;20457;-55
2021/10/04 02:05:22;;;;;;;2.97;1.50;;;16.10;91.90;;;;;;4181150;28;20461;-54
2021/10/04 02:07:44;;;;;;;1.83;1.55;;;16.10;92.00;;;;;;4177145;28;20462;-54
2021/10/04 02:10:10;;;;;;;3.58;1.38;;;16.10;92.00;;;;;;4176168;28;20049;-57
2021/10/04 02:12:32;;;;;;;2.65;1.80;;;16.10;92.00;;;;;;4176044;28;20415;-57
2021/10/04 02:14:54;;;;;;;2.05;1.85;;;16.10;92.00;;;;;;4182179;28;20045;-55
2021/10/04 02:17:16;;;;;;;3.92;1.52;;;16.10;91.90;;;;;;4176181;28;20099;-55
2021/10/04 02:19:38;;;;;;;2.85;1.63;;;16.00;91.90;;;;;;4176326;28;20805;-56
2021/10/04 02:22:03;;;;;;;1.77;1.58;;;16.10;92.00;;;;;;4176074;28;20141;-55
2021/10/04 02:24:25;;;;;;;1.60;1.48;;;16.10;92.00;;;;;;4178457;28;20068;-52
2021/10/04 02:26:48;;;;;;;3.88;1.40;;;16.00;92.00;;;;;;4191877;28;20131;-57
2021/10/04 02:29:10;;;;;;;2.63;1.70;;;16.10;92.00;;;;;;4192217;28;20442;-55
2021/10/04 02:31:32;;;;;;;3.45;1.40;;;16.00;91.90;;;;;;4192121;28;20072;-54
2021/10/04 02:33:54;;;;;;;2.85;1.50;;;16.00;91.80;;;;;;4190180;28;20499;-56
2021/10/04 02:36:21;;;;;;;1.80;1.33;;;16.10;92.00;;;;;;4192093;28;20051;-56
2021/10/04 02:38:43;;;;;;;1.90;1.33;;;16.00;91.90;;;;;;4192084;28;20546;-56
2021/10/04 02:41:06;;;;;;;2.80;1.40;;;16.00;91.90;;;;;;4191919;28;20486;-56
2021/10/04 02:43:29;;;;;;;2.72;1.45;;;16.00;91.80;;;;;;4159212;28;20045;-56
2021/10/04 02:45:52;;;;;;;1.45;1.35;;;16.00;91.80;;;;;;4159400;28;20045;-55
2021/10/04 02:48:15;;;;;;;1.92;1.23;;;16.00;91.80;;;;;;4159094;28;20459;-56
2021/10/04 02:50:37;;;;;;;2.88;1.40;;;16.00;92.00;;;;;;4159476;28;20069;-57
2021/10/04 02:52:59;;;;;;;2.05;1.33;;;16.00;92.00;;;;;;4184272;28;20083;-57
2021/10/04 02:55:21;;;;;;;2.75;1.23;;;16.00;92.00;;;;;;4192147;28;20059;-57
2021/10/04 02:57:43;;;;;;;3.95;1.38;;;16.00;91.90;;;;;;4192149;28;20075;-56
2021/10/04 03:00:24;;;;;;;1.30;1.10;;;16.00;92.00;;;;;;4180194;28;20049;-55
2021/10/04 03:02:47;;;;;;;3.10;1.65;;;16.00;91.90;;;;;;4180573;28;20135;-54
2021/10/04 03:05:09;;;;;;;3.28;1.40;;;16.00;91.90;;;;;;4191999;28;20125;-55
2021/10/04 03:07:31;;;;;;;2.55;1.20;;;16.00;92.00;;;;;;4191934;28;20449;-55
2021/10/04 03:09:53;;;;;;;2.38;1.17;;;16.00;91.90;;;;;;4184217;28;20056;-55
2021/10/04 03:12:15;;;;;;;2.58;0.90;;;16.00;91.90;;;;;;4175164;28;20492;-56
2021/10/04 03:14:37;;;;;;;1.52;1.05;;;16.00;92.00;;;;;;4175284;28;20103;-56
2021/10/04 03:17:01;;;;;;;2.53;1.15;;;16.00;91.90;;;;;;4175257;28;20167;-55
2021/10/04 03:19:23;;;;;;;1.35;1.08;;;16.00;91.90;;;;;;4179967;28;20054;-52
2021/10/04 03:21:46;;;;;;;3.50;1.40;;;16.00;92.00;;;;;;4191543;28;20048;-55
2021/10/04 03:24:10;;;;;;;2.88;1.15;;;16.00;92.00;;;;;;4191487;28;20044;-54
2021/10/04 03:26:32;;;;;;;1.27;1.00;;;16.00;92.00;;;;;;4191561;28;20059;-57
2021/10/04 03:28:54;;;;;;;1.63;1.08;;;16.00;92.00;;;;;;4184008;28;20155;-55
2021/10/04 03:31:16;;;;;;;2.08;1.33;;;16.00;92.00;;;;;;4158526;28;20046;-52
2021/10/04 03:33:39;;;;;;;2.75;1.20;;;15.90;92.00;;;;;;4158537;28;20095;-56
2021/10/04 03:36:02;;;;;;;2.40;1.48;;;16.00;92.10;;;;;;4158401;28;20072;-56
2021/10/04 03:38:24;;;;;;;3.05;0.93;;;16.00;92.00;;;;;;4158417;28;20553;-53
2021/10/04 03:40:46;;;;;;;2.58;1.17;;;16.00;92.00;;;;;;4190939;28;20235;-55
2021/10/04 03:43:09;;;;;;;1.20;1.10;;;16.00;92.10;;;;;;4191493;28;20090;-55
2021/10/04 03:45:31;;;;;;;2.67;1.10;;;16.00;91.90;;;;;;4191018;28;20070;-56
2021/10/04 03:47:53;;;;;;;2.03;1.35;;;16.00;92.00;;;;;;4189594;28;20048;-56
2021/10/04 03:50:18;;;;;;;3.08;1.10;;;16.00;91.90;;;;;;4187216;28;20051;-53
2021/10/04 03:52:41;;;;;;;3.90;1.00;;;15.90;91.80;;;;;;4190873;28;20480;-57
2021/10/04 03:55:04;;;;;;;3.17;1.27;;;16.00;91.90;;;;;;4191354;28;20055;-52
2021/10/04 03:57:26;;;;;;;1.50;0.98;;;15.90;92.00;;;;;;4191027;28;20055;-56
2021/10/04 03:59:49;;;;;;;1.15;0.90;;;15.90;92.00;;;;;;4182682;28;20118;-55
2021/10/04 04:02:12;;;;;;;1.52;0.95;;;16.00;91.90;;;;;;4173990;28;20415;-56
2021/10/04 04:04:34;;;;;;;1.65;0.93;;;16.00;92.00;;;;;;4174146;28;20068;-55
2021/10/04 04:06:57;;;;;;;5.38;1.15;;;15.90;91.90;;;;;;4174649;28;20068;-55
2021/10/04 04:09:19;;;;;;;1.08;0.68;;;15.90;91.80;;;;;;4180609;28;20060;-58
2021/10/04 04:11:42;;;;;;;1.50;0.80;;;15.90;91.80;;;;;;4174567;28;20095;-57
2021/10/04 04:14:05;;;;;;;3.58;1.10;;;15.90;91.90;;;;;;4174325;28;20396;-57
2021/10/04 04:16:27;;;;;;;2.55;0.90;;;15.90;91.90;;;;;;4174716;28;20140;-54
2021/10/04 04:18:48;;;;;;;1.52;0.98;;;15.90;91.80;;;;;;4177498;28;20414;-57
2021/10/04 04:21:11;;;;;;;2.05;1.10;;;15.90;91.80;;;;;;4190953;28;20045;-56
2021/10/04 04:23:34;;;;;;;2.40;1.10;;;15.90;91.90;;;;;;4191140;28;20122;-53
2021/10/04 04:25:56;;;;;;;2.92;1.10;;;15.90;91.90;;;;;;4191107;28;20040;-54
2021/10/04 04:28:18;;;;;;;3.13;1.13;;;15.90;91.90;;;;;;4190905;28;20072;-54
2021/10/04 04:30:41;;;;;;;1.08;0.98;;;15.90;91.90;;;;;;4158271;28;20484;-56
2021/10/04 04:33:03;;;;;;;0.93;0.88;;;15.90;91.90;;;;;;4158093;28;20062;-56
2021/10/04 04:35:25;;;;;;;1.20;0.88;;;15.90;91.90;;;;;;4157698;28;20056;-54
2021/10/04 04:37:48;;;;;;;1.40;0.80;;;15.90;91.90;;;;;;4160815;28;20103;-55
2021/10/04 04:40:14;;;;;;;1.65;0.98;;;15.90;91.90;;;;;;4174661;28;20064;-54
2021/10/04 04:42:36;;;;;;;1.77;1.10;;;15.90;92.00;;;;;;4174515;28;20053;-56
2021/10/04 04:44:58;;;;;;;1.73;0.82;;;15.90;91.90;;;;;;4174338;28;20044;-56
2021/10/04 04:47:20;;;;;;;3.28;1.20;;;15.90;92.00;;;;;;4174323;28;20683;-56
2021/10/04 04:49:43;;;;;;;2.00;0.73;;;15.90;92.00;;;;;;4188040;28;20141;-54
2021/10/04 04:52:05;;;;;;;3.60;1.10;;;15.90;92.00;;;;;;4193914;28;20045;-55
2021/10/04 04:54:27;;;;;;;2.58;0.68;;;15.90;92.00;;;;;;4194056;28;20139;-55
2021/10/04 04:56:54;;;;;;;1.85;1.02;;;15.90;91.90;;;;;;4193742;28;20509;-56
2021/10/04 04:59:16;;;;;;;2.15;0.90;;;15.90;92.00;;;;;;4191896;28;20623;-55
2021/10/04 05:01:38;;;;;;;1.27;0.82;;;15.90;92.00;;;;;;4194147;28;20049;-53
2021/10/04 05:04:00;;;;;;;2.15;1.08;;;15.90;92.00;;;;;;4193841;28;20075;-53
2021/10/04 05:06:22;;;;;;;2.28;0.90;;;15.90;92.00;;;;;;4193956;28;20044;-56
2021/10/04 05:08:44;;;;;;;1.00;0.82;;;15.90;92.00;;;;;;4189330;28;20506;-56
2021/10/04 05:11:07;;;;;;;2.85;1.10;;;15.80;91.70;;;;;;4193473;28;20052;-56
2021/10/04 05:13:30;;;;;;;1.60;0.80;;;15.80;91.90;;;;;;4193792;28;20177;-56
2021/10/04 05:15:52;;;;;;;2.67;0.65;;;15.80;91.90;;;;;;4193207;28;20127;-56
2021/10/04 05:18:14;;;;;;;0.80;0.70;;;15.80;91.90;;;;;;4188991;28;20049;-54
2021/10/04 05:20:36;;;;;;;0.93;0.65;;;15.80;92.00;;;;;;4177439;28;20491;-56
2021/10/04 05:22:58;;;;;;;1.98;0.98;;;15.80;91.90;;;;;;4176959;28;20064;-55
2021/10/04 05:25:20;;;;;;;4.07;1.33;;;15.80;92.00;;;;;;4177261;28;20068;-56
2021/10/04 05:27:42;;;;;;;1.92;0.90;;;15.80;91.90;;;;;;4179736;28;20055;-55
2021/10/04 05:30:08;;;;;;;1.42;0.90;;;15.80;91.90;;;;;;4160203;28;20057;-56
2021/10/04 05:32:29;;;;;;;0.80;0.68;;;15.80;91.90;;;;;;4160410;28;20052;-55
2021/10/04 05:34:52;;;;;;;1.58;1.05;;;15.80;92.00;;;;;;4160430;28;20049;-56
2021/10/04 05:37:16;;;;;;;1.63;0.70;;;15.80;92.10;;;;;;4160288;28;20052;-54
2021/10/04 05:39:40;;;;;;;1.33;0.80;;;15.80;92.10;;;;;;4192192;28;20064;-55
2021/10/04 05:42:04;;;;;;;1.30;0.70;;;15.80;92.50;;;;;;4193060;28;20418;-54
2021/10/04 05:44:26;;;;;;;4.22;1.23;;;15.80;92.60;;;;;;4193361;28;20044;-55
2021/10/04 05:46:50;;;;;;;1.65;0.90;;;15.90;92.80;;;;;;4192738;28;20079;-53
2021/10/04 05:49:12;;;;;;;4.30;1.30;;;15.90;92.80;;;;;;4176992;28;20056;-52
2021/10/04 05:51:34;;;;;;;3.65;1.02;;;15.90;92.60;;;;;;4179593;28;20446;-54
2021/10/04 05:53:56;;;;;;;1.10;0.98;;;15.90;92.50;;;;;;4176687;28;20575;-55
2021/10/04 05:56:18;;;;;;;3.03;0.88;;;15.90;92.40;;;;;;4161494;28;20503;-54
2021/10/04 05:58:40;;;;;;;1.65;1.15;;;15.90;92.30;;;;;;4176753;28;20055;-54
2021/10/04 06:01:03;;;;;;;3.10;1.20;;;15.90;92.30;;;;;;4175540;28;20506;-55
2021/10/04 06:03:27;;;;;;;2.60;1.00;;;15.90;92.20;;;;;;4176219;28;20049;-54
2021/10/04 06:05:49;;;;;;;2.65;0.98;;;15.90;92.10;;;;;;4187601;28;20130;-56
2021/10/04 06:08:11;;;;;;;1.27;0.90;;;15.90;92.10;;;;;;4189870;28;20139;-54
2021/10/04 06:10:33;;;;;;;3.65;1.25;;;15.80;92.10;;;;;;4189996;28;20044;-55
2021/10/04 06:12:55;;;;;;;2.15;0.90;;;15.80;92.50;;;;;;4192701;28;20060;-57
2021/10/04 06:15:17;;;;;;;1.65;1.08;;;15.80;92.00;;;;;;4192450;28;20117;-55
2021/10/04 06:17:39;;;;;;;2.38;0.90;;;15.80;91.90;;;;;;4192572;28;20055;-56
2021/10/04 06:20:04;;;;;;;2.05;0.85;;;15.80;91.90;;;;;;4192448;28;20135;-56
2021/10/04 06:22:29;;;;;;;1.95;1.38;;;15.80;91.90;;;;;;4192669;28;20123;-55
2021/10/04 06:24:51;;;;;;;1.08;0.98;;;15.80;91.90;;;;;;4190079;28;20052;-56
2021/10/04 06:27:13;;;;;;;1.58;1.02;;;15.80;91.80;;;;;;4175928;28;20102;-53
2021/10/04 06:29:37;;;;;;;1.98;0.95;;;15.80;91.80;;;;;;4176088;28;20476;-56
2021/10/04 06:31:59;;;;;;;1.92;1.00;;;15.80;91.80;;;;;;4176057;28;20443;-56
2021/10/04 06:34:21;;;;;;;1.88;0.85;;;15.80;91.90;;;;;;4176211;28;20059;-57
2021/10/04 06:36:45;;;;;;;1.73;0.88;;;15.80;91.90;;;;;;4186413;28;20498;-58
2021/10/04 06:39:07;;;;;;;1.83;0.90;;;15.80;91.80;;;;;;4192243;28;20052;-59
2021/10/04 06:41:29;;;;;;;2.60;0.80;;;15.80;91.90;;;;;;4192277;28;20053;-56
2021/10/04 06:43:51;;;;;;;3.78;1.00;;;15.90;91.90;;;;;;4181474;28;20056;-56
2021/10/04 06:46:13;;;;;;;1.50;0.88;;;15.90;91.90;;;;;;4175428;28;20476;-53
2021/10/04 06:48:36;;;;;;;3.25;0.90;;;15.90;91.80;;;;;;4175500;28;20099;-57
2021/10/04 06:50:58;;;;;;;3.25;1.30;;;15.90;91.80;;;;;;4177546;28;20488;-56
2021/10/04 06:53:21;;;;;;;2.00;0.80;;;15.80;91.70;;;;;;4163826;28;20107;-55
2021/10/04 06:55:45;;;;;;;2.42;0.95;;;15.80;91.70;;;;;;4189948;28;20519;-53
2021/10/04 06:58:07;;;;;;;3.35;1.02;;;15.80;91.80;;;;;;4178271;28;20087;-52
2021/10/04 07:00:29;;;;;;;2.00;1.02;;;15.80;91.70;;;;;;4175844;28;20140;-53
2021/10/04 07:02:53;;;;;;;2.38;0.80;;;15.80;92.10;;;;;;4175397;28;20049;-54
2021/10/04 07:05:15;;;;;;;2.55;0.90;;;15.80;91.70;;;;;;4175343;28;20060;-53
2021/10/04 07:07:37;;;;;;;1.10;0.90;;;15.80;91.70;;;;;;4175259;28;20438;-55
2021/10/04 07:10:01;;;;;;;1.80;0.73;;;15.80;91.70;;;;;;4177832;28;20121;-54
2021/10/04 07:12:24;;;;;;;1.02;0.98;;;15.80;91.90;;;;;;4166055;28;20049;-54
2021/10/04 07:14:45;;;;;;;3.15;1.02;;;15.80;91.70;;;;;;4175502;28;20081;-55
2021/10/04 07:17:08;;;;;;;1.45;1.35;;;15.80;91.70;;;;;;4174560;28;20049;-54
2021/10/04 07:19:30;;;;;;;3.60;1.00;;;15.80;91.70;;;;;;4175272;28;20554;-55
2021/10/04 07:21:55;;;;;;;2.05;1.02;;;15.80;91.60;;;;;;4180755;28;20071;-54
2021/10/04 07:24:17;;;;;;;1.88;1.25;;;15.80;91.70;;;;;;4185630;28;20477;-56
2021/10/04 07:26:40;;;;;;;0.98;0.70;;;15.80;91.60;;;;;;4174887;28;20045;-54
2021/10/04 07:29:04;;;;;;;1.83;1.00;;;15.80;91.50;;;;;;4174745;28;20057;-55
2021/10/04 07:31:27;;;;;;;3.05;1.20;;;15.80;91.60;;;;;;4188691;28;20076;-54
2021/10/04 07:33:51;;;;;;;1.92;0.75;;;15.80;91.60;;;;;;4191797;28;20052;-52
2021/10/04 07:36:13;;;;;;;0.75;0.70;;;15.80;91.60;;;;;;4191789;28;20060;-51
2021/10/04 07:38:36;;;;;;;3.30;1.10;;;15.80;91.60;;;;;;4191384;28;20045;-54
2021/10/04 07:40:59;;;;;;;1.25;1.00;;;15.80;91.60;;;;;;4179068;28;20127;-54
2021/10/04 07:43:22;;;;;;;1.17;0.90;;;15.80;91.60;;;;;;4177940;28;20055;-55
2021/10/04 07:45:45;;;;;;;2.97;1.00;;;15.80;91.50;;;;;;4191442;28;20045;-52
2021/10/04 07:48:07;;;;;;;3.05;1.13;;;15.80;91.50;;;;;;4191173;28;20048;-56
2021/10/04 07:50:29;;;;;;;1.00;0.80;;;15.80;91.50;;;;;;4189306;28;20053;-53
2021/10/04 07:52:51;;;;;;;2.75;0.95;;;15.80;91.60;;;;;;4191589;28;20121;-56
2021/10/04 07:55:14;;;;;;;1.83;1.10;;;15.80;91.50;;;;;;4174942;28;20106;-52
2021/10/04 07:57:36;;;;;;;1.30;0.93;;;15.80;91.50;;;;;;4174382;28;20071;-55
2021/10/04 08:00:00;;;;;;;0.90;0.73;;;15.80;91.60;;;;;;4172192;28;20135;-53
2021/10/04 08:02:22;;;;;;;2.38;1.10;;;15.80;91.50;;;;;;4191504;28;20048;-53
2021/10/04 08:04:44;;;;;;;1.40;0.70;;;15.80;91.50;;;;;;4191399;28;20052;-53
2021/10/04 08:07:06;;;;;;;2.03;1.15;;;15.80;91.50;;;;;;4191206;28;20059;-54
2021/10/04 08:09:28;;;;;;;3.47;1.15;;;15.80;91.40;;;;;;4189561;28;20114;-55
2021/10/04 08:11:50;;;;;;;2.05;1.02;;;15.80;91.50;;;;;;4174605;28;20057;-49
2021/10/04 08:14:12;;;;;;;1.98;0.93;;;15.80;91.40;;;;;;4174300;28;20048;-51
2021/10/04 08:16:36;;;;;;;1.38;0.93;;;15.80;91.40;;;;;;4174505;28;20045;-54
2021/10/04 08:18:58;;;;;;;1.65;1.02;;;15.80;91.30;;;;;;4175192;28;20053;-52
2021/10/04 08:21:22;;;;;;;3.53;1.05;;;15.80;91.30;;;;;;4189027;28;20049;-53
2021/10/04 08:23:44;;;;;;;1.05;1.05;;;15.80;91.30;;;;;;4191609;28;20113;-52
2021/10/04 08:26:06;;;;;;;3.35;1.25;;;15.80;91.30;;;;;;4194650;28;20106;-55
2021/10/04 08:28:28;;;;;;;1.63;1.15;;;15.80;91.30;;;;;;4194485;28;20520;-52
2021/10/04 08:30:50;;;;;;;1.83;0.90;;;15.80;91.70;;;;;;4192560;28;20430;-54
2021/10/04 08:33:14;;;;;;;1.00;1.00;;;15.80;91.30;;;;;;4194411;28;20037;-53
2021/10/04 08:35:36;;;;;;;1.48;0.88;;;15.80;91.20;;;;;;4192692;28;20078;-55
2021/10/04 08:37:58;;;;;;;2.65;0.80;;;15.80;91.20;;;;;;4191734;28;20048;-56
2021/10/04 08:40:20;;;;;;;1.42;0.80;;;15.80;91.20;;;;;;4177560;28;20553;-54
2021/10/04 08:42:44;;;;;;;3.15;1.08;;;15.80;91.20;;;;;;4177781;28;20452;-56
2021/10/04 08:45:08;;;;;;;1.95;1.00;;;15.80;91.20;;;;;;4177574;28;20053;-54
2021/10/04 08:47:35;;;;;;;4.93;1.40;;;15.80;91.20;;;;;;4177318;28;20111;-54
2021/10/04 08:49:59;;;;;;;4.45;1.80;;;15.80;91.20;;;;;;4192815;28;20056;-55
2021/10/04 08:52:21;;;;;;;2.10;0.80;;;15.80;91.20;;;;;;4194270;28;20136;-55
2021/10/04 08:54:44;;;;;;;2.20;1.10;;;15.80;91.60;;;;;;4194092;28;20057;-56
2021/10/04 08:57:07;;;;;;;1.17;1.08;;;15.80;91.30;;;;;;4194028;28;20044;-56
2021/10/04 08:59:29;;;;;;;2.08;1.00;;;15.80;91.30;;;;;;4191789;28;20048;-57
2021/10/04 09:01:51;;;;;;;2.88;0.77;;;15.90;91.30;;;;;;4182309;28;20053;-52
2021/10/04 09:04:19;;;;;;;4.15;0.90;;;15.90;91.30;;;;;;4177505;28;20040;-53
2021/10/04 09:06:43;;;;;;;2.83;1.00;;;16.00;91.30;;;;;;4176874;28;20053;-56
2021/10/04 09:09:07;;;;;;;1.65;1.33;;;16.00;91.20;;;;;;4178240;28;20415;-55
2021/10/04 09:11:32;;;;;;;2.88;0.95;;;16.00;91.10;;;;;;4177240;28;20057;-55
2021/10/04 09:13:54;;;;;;;1.70;0.93;;;16.10;91.00;;;;;;4176955;28;20060;-56
2021/10/04 09:16:16;;;;;;;2.00;0.85;;;16.10;90.90;;;;;;4177282;28;20132;-58
2021/10/04 09:18:38;;;;;;;3.13;0.90;;;16.20;90.80;;;;;;4182778;28;20068;-57
2021/10/04 09:21:01;;;;;;;3.78;1.50;;;16.20;90.70;;;;;;4193430;28;20060;-56
2021/10/04 09:23:35;;;;;;;2.25;1.05;;;16.30;90.70;;;;;;4191328;28;20052;-58
2021/10/04 09:25:57;;;;;;;1.23;0.70;;;16.30;91.00;;;;;;4166329;28;20135;-58
2021/10/04 09:28:28;;;;;;;2.45;0.95;;;16.30;90.50;;;;;;4176576;28;20488;-58
2021/10/04 09:30:54;;;;;;;1.58;1.10;;;16.30;90.50;;;;;;4172302;28;20190;-58
2021/10/04 09:33:16;;;;;;;1.27;0.93;;;16.40;90.50;;;;;;4176940;28;20080;-58
2021/10/04 09:35:38;;;;;;;3.35;1.23;;;16.40;90.60;;;;;;4176505;28;20052;-59
2021/10/04 09:38:16;;;;;;;3.47;1.23;;;16.50;90.50;;;;;;4176199;28;20678;-58
2021/10/04 09:40:41;;;;;;;3.88;1.30;;;16.50;90.50;;;;;;4190581;28;20045;-59
2021/10/04 09:43:05;;;;;;;2.05;1.15;;;16.60;90.40;;;;;;4193075;28;20036;-57
2021/10/04 09:45:28;;;;;;;3.47;1.38;;;16.60;90.40;;;;;;4193586;28;20693;-59
2021/10/04 09:47:51;;;;;;;1.60;0.93;;;16.60;90.30;;;;;;4193642;28;20053;-58
2021/10/04 09:50:15;;;;;;;1.67;1.15;;;16.60;90.30;;;;;;4190919;28;20055;-59
2021/10/04 09:52:42;;;;;;;2.40;0.85;;;16.60;90.30;;;;;;4191894;28;20048;-58
2021/10/04 09:55:27;;;;;;;2.42;0.93;;;16.60;90.20;;;;;;4192929;28;20418;-58
2021/10/04 09:58:00;;;;;;;2.83;1.00;;;16.70;90.20;;;;;;4181600;28;20049;-59
2021/10/04 10:00:23;;;;;;;2.67;0.90;;;16.70;90.20;;;;;;4175449;28;20081;-58
2021/10/04 10:02:47;;;;;;;1.27;1.17;;;16.70;90.20;;;;;;4174883;28;20061;-58
2021/10/04 10:05:09;;;;;;;5.10;1.17;;;16.70;90.20;;;;;;4175195;28;20563;-57
2021/10/04 10:07:32;;;;;;;2.80;0.93;;;16.70;90.20;;;;;;4159829;28;20049;-58
2021/10/04 10:09:55;;;;;;;3.42;1.08;;;16.70;90.10;;;;;;4164474;28;20123;-58
2021/10/04 10:12:17;;;;;;;2.97;0.95;;;16.70;90.10;;;;;;4176436;28;20140;-59
2021/10/04 10:14:43;;;;;;;5.18;1.25;;;16.70;90.10;;;;;;4176363;28;20056;-57
2021/10/04 10:17:06;;;;;;;1.95;0.90;;;16.80;90.10;;;;;;4176126;28;20060;-58
2021/10/04 10:19:31;;;;;;;2.78;0.70;;;16.80;90.10;;;;;;4176256;28;20053;-58
2021/10/04 10:22:11;;;;;;;1.85;1.05;;;16.80;90.10;;;;;;4176307;28;20049;-58
2021/10/04 10:24:33;;;;;;;3.40;1.27;;;16.80;90.00;;;;;;4174392;28;20045;-58
2021/10/04 10:26:59;;;;;;;4.88;1.02;;;16.80;90.00;;;;;;4175823;28;20053;-58
2021/10/04 10:29:27;;;;;;;3.33;1.20;;;16.90;90.00;;;;;;4177309;28;20099;-57
2021/10/04 10:32:12;;;;;;;5.60;1.00;;;16.90;90.00;;;;;;4159450;28;20055;-58
2021/10/04 10:34:54;;;;;;;3.90;1.20;;;16.90;90.00;;;;;;4159220;28;20127;-57
2021/10/04 10:37:17;;;;;;;3.72;1.13;;;16.90;89.90;;;;;;4159581;28;20052;-58
2021/10/04 10:39:45;;;;;;;1.23;0.80;;;16.90;89.80;;;;;;4188687;28;20045;-57
2021/10/04 10:42:11;;;;;;;3.53;1.02;;;16.90;89.80;;;;;;4192068;28;20565;-58
2021/10/04 10:44:33;;;;;;;2.55;1.13;;;17.00;89.80;;;;;;4192058;28;20063;-57
2021/10/04 10:46:56;;;;;;;2.65;1.05;;;17.00;89.70;;;;;;4191573;28;20037;-57
2021/10/04 10:49:57;;;;;;;4.35;1.40;;;17.00;89.60;;;;;;4190609;28;20053;-58
2021/10/04 10:52:22;;;;;;;1.92;0.70;;;17.10;89.40;;;;;;4172587;28;20057;-58
2021/10/04 10:54:45;;;;;;;2.85;0.82;;;17.10;89.50;;;;;;4175887;28;21582;-58
2021/10/04 10:57:07;;;;;;;2.85;1.15;;;17.10;89.40;;;;;;4175544;28;20068;-58
2021/10/04 10:59:29;;;;;;;2.72;1.10;;;17.20;89.30;;;;;;4187282;28;20106;-58
2021/10/04 11:01:52;;;;;;;2.85;0.80;;;17.20;89.10;;;;;;4161141;28;20052;-58
2021/10/04 11:04:44;;;;;;;1.08;0.60;;;17.20;89.00;;;;;;4164471;28;20065;-58
2021/10/04 11:07:06;;;;;;;1.60;0.70;;;17.20;88.90;;;;;;4158836;28;20545;-58
2021/10/04 11:10:09;;;;;;;2.17;0.90;;;17.20;88.90;;;;;;4159841;28;20048;-59
2021/10/04 11:12:51;;;;;;;2.97;1.00;;;17.30;88.90;;;;;;4158100;28;20488;-57
2021/10/04 11:15:29;;;;;;;3.05;1.08;;;17.20;88.90;;;;;;4174573;28;20143;-59
2021/10/04 11:17:55;;;;;;;2.25;0.85;;;17.30;88.80;;;;;;4174999;28;20053;-59
2021/10/04 11:20:18;;;;;;;2.03;0.95;;;17.30;88.70;;;;;;4158859;28;20091;-59
2021/10/04 11:22:41;;;;;;;2.55;0.82;;;17.40;88.60;;;;;;4158693;28;20140;-59
2021/10/04 11:25:05;;;;;;;2.35;1.05;;;17.40;88.30;;;;;;4158610;28;20049;-58
2021/10/04 11:27:27;;;;;;;2.95;0.90;;;17.40;88.40;;;;;;4158835;28;20107;-59
2021/10/04 11:29:48;;;;;;;2.10;0.95;;;17.40;88.40;;;;;;4189105;28;20056;-58
2021/10/04 11:32:16;;;;;;;2.13;0.75;;;17.40;88.30;;;;;;4191567;28;20044;-58
2021/10/04 11:34:38;;;;;;;3.60;1.10;;;17.40;88.20;;;;;;4182236;28;20526;-59
2021/10/04 11:37:02;;;;;;;6.03;1.15;;;17.40;88.20;;;;;;4175414;28;20045;-58
2021/10/04 11:39:27;;;;;;;2.85;0.63;;;17.50;88.10;;;;;;4186199;28;20052;-59
2021/10/04 11:41:51;;;;;;;2.65;0.88;;;17.50;88.10;;;;;;4191113;28;20040;-57
2021/10/04 11:44:20;;;;;;;2.97;0.80;;;17.50;87.80;;;;;;4191398;28;20060;-59
2021/10/04 11:46:46;;;;;;;2.67;0.90;;;17.50;87.80;;;;;;4191577;28;20098;-59
2021/10/04 11:49:09;;;;;;;1.95;0.80;;;17.50;88.30;;;;;;4180131;28;20049;-59
2021/10/04 11:51:34;;;;;;;4.13;1.02;;;17.50;88.60;;;;;;4174824;28;20063;-58
2021/10/04 11:53:59;;;;;;;4.05;1.20;;;17.50;88.40;;;;;;4174451;28;20095;-58
2021/10/04 11:56:22;;;;;;;1.02;0.85;;;17.60;88.40;;;;;;4174811;28;20044;-59
2021/10/04 11:58:49;;;;;;;2.05;0.70;;;17.60;88.20;;;;;;4173504;28;20068;-57
2021/10/04 12:01:11;;;;;;;1.85;0.85;;;17.60;88.20;;;;;;4174636;28;20426;-58
2021/10/04 12:03:34;;;;;;;2.45;0.77;;;17.60;88.00;;;;;;4174220;28;20140;-59
2021/10/04 12:05:58;;;;;;;4.20;1.42;;;17.60;87.90;;;;;;4181920;28;20510;-58
2021/10/04 12:08:21;;;;;;;2.65;1.02;;;17.70;87.70;;;;;;4187005;28;20534;-58
2021/10/04 12:10:46;;;;;;;2.08;0.75;;;17.70;87.50;;;;;;4174195;28;20064;-58
2021/10/04 12:13:09;;;;;;;1.90;1.02;;;17.70;87.70;;;;;;4173101;28;20095;-58
2021/10/04 12:15:32;;;;;;;3.38;0.70;;;17.80;87.60;;;;;;4175561;28;20045;-58
2021/10/04 12:17:54;;;;;;;1.55;0.52;;;17.70;87.70;;;;;;4174411;28;20055;-58
2021/10/04 12:20:22;;;;;;;3.13;0.50;;;17.80;87.50;;;;;;4174714;28;20128;-58
2021/10/04 12:22:44;;;;;;;3.22;1.17;;;17.80;88.10;;;;;;4174501;28;20057;-59
2021/10/04 12:25:24;;;;;;;3.53;0.70;;;17.80;87.10;;;;;;4180326;28;20052;-58
2021/10/04 12:28:03;;;;;;;1.67;0.30;;;17.80;86.50;;;;;;4190063;28;20057;-58
2021/10/04 12:30:25;;;;;;;2.63;0.65;;;17.80;86.20;;;;;;4189452;28;20057;-58